Terminal Aerodrome Forecast
Issued by NWS

Home | Current Version | Previous Version | Text Only | Print | Product List | Glossary On
Versions: 1 2 3 4 5 6 7 8 9 10 11 12 13 14
471
FTUS43 KSGF 221137 CCA
TAFJLN
TAF COR
KJLN 221137Z 2212/2312 23011G20KT P6SM -SHRA VCTS SCT040CB BKN080
      TEMPO 2212/2214 VRB24G40KT 4SM -TSRA BR BKN015CB
     FM221700 29010KT P6SM VCTS BKN040CB
     FM222000 35007KT P6SM VCSH BKN110
     FM222300 01007KT P6SM SCT130=

USA.gov is the U.S. government's official web portal to all federal, state and local government web resources and services.